sensor_id;sensor_type;location;lat;lon;timestamp;temperature;humidity
31133;DHT22;17779;50.942;4.026;2022-11-28T00:01:30;8.50;99.90
31133;DHT22;17779;50.942;4.026;2022-11-28T00:03:56;8.50;99.90
31133;DHT22;17779;50.942;4.026;2022-11-28T00:06:22;8.50;99.90
31133;DHT22;17779;50.942;4.026;2022-11-28T00:08:48;8.50;99.90
31133;DHT22;17779;50.942;4.026;2022-11-28T00:11:14;8.50;99.90
31133;DHT22;17779;50.942;4.026;2022-11-28T00:13:40;8.50;99.90
31133;DHT22;17779;50.942;4.026;2022-11-28T00:16:06;8.40;99.90
31133;DHT22;17779;50.942;4.026;2022-11-28T00:18:33;8.40;99.90
31133;DHT22;17779;50.942;4.026;2022-11-28T00:21:03;8.40;99.90
31133;DHT22;17779;50.942;4.026;2022-11-28T00:23:29;8.40;99.90
31133;DHT22;17779;50.942;4.026;2022-11-28T00:26:00;8.50;99.90
31133;DHT22;17779;50.942;4.026;2022-11-28T00:28:26;8.50;99.90
31133;DHT22;17779;50.942;4.026;2022-11-28T00:30:52;8.40;99.90
31133;DHT22;17779;50.942;4.026;2022-11-28T00:33:18;8.40;99.90
31133;DHT22;17779;50.942;4.026;2022-11-28T00:35:43;8.40;99.90
31133;DHT22;17779;50.942;4.026;2022-11-28T00:38:09;8.30;99.90
31133;DHT22;17779;50.942;4.026;2022-11-28T00:40:35;8.20;99.90
31133;DHT22;17779;50.942;4.026;2022-11-28T00:43:00;8.20;99.90
31133;DHT22;17779;50.942;4.026;2022-11-28T00:45:26;8.30;99.90
31133;DHT22;17779;50.942;4.026;2022-11-28T00:47:52;8.30;99.90
31133;DHT22;17779;50.942;4.026;2022-11-28T00:50:18;8.20;99.90
31133;DHT22;17779;50.942;4.026;2022-11-28T00:52:43;8.20;99.90
31133;DHT22;17779;50.942;4.026;2022-11-28T00:55:10;8.30;99.90
31133;DHT22;17779;50.942;4.026;2022-11-28T00:57:36;8.30;99.90
31133;DHT22;17779;50.942;4.026;2022-11-28T01:00:03;8.30;99.90
31133;DHT22;17779;50.942;4.026;2022-11-28T01:02:29;8.30;99.90
31133;DHT22;17779;50.942;4.026;2022-11-28T01:04:55;8.30;99.90
31133;DHT22;17779;50.942;4.026;2022-11-28T01:07:21;8.30;99.90
31133;DHT22;17779;50.942;4.026;2022-11-28T01:09:46;8.30;99.90
31133;DHT22;17779;50.942;4.026;2022-11-28T01:12:12;8.20;99.90
31133;DHT22;17779;50.942;4.026;2022-11-28T01:14:38;8.30;99.90
31133;DHT22;17779;50.942;4.026;2022-11-28T01:17:03;8.20;99.90
31133;DHT22;17779;50.942;4.026;2022-11-28T01:19:29;8.30;99.90
31133;DHT22;17779;50.942;4.026;2022-11-28T01:21:55;8.20;99.90
31133;DHT22;17779;50.942;4.026;2022-11-28T01:24:20;8.20;99.90
31133;DHT22;17779;50.942;4.026;2022-11-28T01:26:46;8.30;99.90
31133;DHT22;17779;50.942;4.026;2022-11-28T01:29:12;8.30;99.90
31133;DHT22;17779;50.942;4.026;2022-11-28T01:31:38;8.20;99.90
31133;DHT22;17779;50.942;4.026;2022-11-28T01:34:03;8.20;99.90
31133;DHT22;17779;50.942;4.026;2022-11-28T01:36:29;8.30;99.90
31133;DHT22;17779;50.942;4.026;2022-11-28T01:38:55;8.20;99.90
31133;DHT22;17779;50.942;4.026;2022-11-28T01:41:22;8.20;99.90
31133;DHT22;17779;50.942;4.026;2022-11-28T01:43:55;8.20;99.90
31133;DHT22;17779;50.942;4.026;2022-11-28T01:46:21;8.20;99.90
31133;DHT22;17779;50.942;4.026;2022-11-28T01:48:47;8.20;99.90
31133;DHT22;17779;50.942;4.026;2022-11-28T01:51:13;8.20;99.90
31133;DHT22;17779;50.942;4.026;2022-11-28T01:53:40;8.30;99.90
31133;DHT22;17779;50.942;4.026;2022-11-28T01:56:28;8.30;99.90
31133;DHT22;17779;50.942;4.026;2022-11-28T01:58:54;8.40;99.90
31133;DHT22;17779;50.942;4.026;2022-11-28T02:01:22;8.30;99.90
31133;DHT22;17779;50.942;4.026;2022-11-28T02:03:49;8.30;99.90
31133;DHT22;17779;50.942;4.026;2022-11-28T02:06:16;8.30;99.90
31133;DHT22;17779;50.942;4.026;2022-11-28T02:08:42;8.30;99.90
31133;DHT22;17779;50.942;4.026;2022-11-28T02:13:50;8.30;99.90
31133;DHT22;17779;50.942;4.026;2022-11-28T02:18:58;8.30;99.90
31133;DHT22;17779;50.942;4.026;2022-11-28T02:21:29;8.50;99.90
31133;DHT22;17779;50.942;4.026;2022-11-28T02:31:24;8.40;99.90
31133;DHT22;17779;50.942;4.026;2022-11-28T02:33:54;8.30;99.90
31133;DHT22;17779;50.942;4.026;2022-11-28T02:36:26;8.30;99.90
31133;DHT22;17779;50.942;4.026;2022-11-28T02:44:07;8.30;99.90
31133;DHT22;17779;50.942;4.026;2022-11-28T02:49:32;8.40;99.90
31133;DHT22;17779;50.942;4.026;2022-11-28T02:52:14;8.40;99.90
31133;DHT22;17779;50.942;4.026;2022-11-28T02:54:40;8.50;99.90
31133;DHT22;17779;50.942;4.026;2022-11-28T02:57:07;8.60;99.90
31133;DHT22;17779;50.942;4.026;2022-11-28T02:59:43;8.50;99.90
31133;DHT22;17779;50.942;4.026;2022-11-28T03:02:21;8.50;99.90
31133;DHT22;17779;50.942;4.026;2022-11-28T03:12:50;8.50;99.90
31133;DHT22;17779;50.942;4.026;2022-11-28T03:15:21;8.50;99.90
31133;DHT22;17779;50.942;4.026;2022-11-28T03:17:59;8.40;99.90
31133;DHT22;17779;50.942;4.026;2022-11-28T03:23:12;8.40;99.90
31133;DHT22;17779;50.942;4.026;2022-11-28T03:25:56;8.50;99.90
31133;DHT22;17779;50.942;4.026;2022-11-28T03:28:28;8.60;99.90
31133;DHT22;17779;50.942;4.026;2022-11-28T03:30:59;8.50;99.90
31133;DHT22;17779;50.942;4.026;2022-11-28T03:33:26;8.50;99.90
31133;DHT22;17779;50.942;4.026;2022-11-28T03:35:55;8.50;99.90
31133;DHT22;17779;50.942;4.026;2022-11-28T03:38:24;8.50;99.90
31133;DHT22;17779;50.942;4.026;2022-11-28T03:40:54;8.50;99.90
31133;DHT22;17779;50.942;4.026;2022-11-28T03:43:23;8.50;99.90
31133;DHT22;17779;50.942;4.026;2022-11-28T03:45:52;8.50;99.90
31133;DHT22;17779;50.942;4.026;2022-11-28T03:48:24;8.50;99.90
31133;DHT22;17779;50.942;4.026;2022-11-28T03:50:52;8.60;99.90
31133;DHT22;17779;50.942;4.026;2022-11-28T03:53:21;8.60;99.90
31133;DHT22;17779;50.942;4.026;2022-11-28T03:55:49;8.60;99.90
31133;DHT22;17779;50.942;4.026;2022-11-28T03:58:26;8.50;99.90
31133;DHT22;17779;50.942;4.026;2022-11-28T04:00:58;8.70;99.90
31133;DHT22;17779;50.942;4.026;2022-11-28T04:03:31;8.60;99.90
31133;DHT22;17779;50.942;4.026;2022-11-28T04:06:13;8.60;99.90
31133;DHT22;17779;50.942;4.026;2022-11-28T04:08:59;8.60;99.90
31133;DHT22;17779;50.942;4.026;2022-11-28T04:11:36;8.60;99.90
31133;DHT22;17779;50.942;4.026;2022-11-28T04:14:04;8.70;99.90
31133;DHT22;17779;50.942;4.026;2022-11-28T04:16:33;8.60;99.90
31133;DHT22;17779;50.942;4.026;2022-11-28T04:23:58;8.70;99.90
31133;DHT22;17779;50.942;4.026;2022-11-28T04:26:35;8.60;99.90
31133;DHT22;17779;50.942;4.026;2022-11-28T04:29:03;8.70;99.90
31133;DHT22;17779;50.942;4.026;2022-11-28T04:31:31;8.70;99.90
31133;DHT22;17779;50.942;4.026;2022-11-28T04:33:58;8.80;99.90
31133;DHT22;17779;50.942;4.026;2022-11-28T04:36:24;8.80;99.90
31133;DHT22;17779;50.942;4.026;2022-11-28T04:38:51;8.80;99.90
31133;DHT22;17779;50.942;4.026;2022-11-28T04:43:58;8.80;99.90
31133;DHT22;17779;50.942;4.026;2022-11-28T04:46:26;8.80;99.90
31133;DHT22;17779;50.942;4.026;2022-11-28T04:48:54;8.80;99.90
31133;DHT22;17779;50.942;4.026;2022-11-28T04:51:27;8.80;99.90
31133;DHT22;17779;50.942;4.026;2022-11-28T04:54:00;8.90;99.90
31133;DHT22;17779;50.942;4.026;2022-11-28T04:56:27;9.10;99.90
31133;DHT22;17779;50.942;4.026;2022-11-28T04:58:55;9.10;99.90
31133;DHT22;17779;50.942;4.026;2022-11-28T05:01:23;9.20;99.90
31133;DHT22;17779;50.942;4.026;2022-11-28T05:03:49;9.00;99.90
31133;DHT22;17779;50.942;4.026;2022-11-28T05:06:24;9.00;99.90
31133;DHT22;17779;50.942;4.026;2022-11-28T05:08:51;9.00;99.90
31133;DHT22;17779;50.942;4.026;2022-11-28T05:11:16;9.00;99.90
31133;DHT22;17779;50.942;4.026;2022-11-28T05:13:42;8.90;99.90
31133;DHT22;17779;50.942;4.026;2022-11-28T05:16:08;8.90;99.90
31133;DHT22;17779;50.942;4.026;2022-11-28T05:18:34;8.80;99.90
31133;DHT22;17779;50.942;4.026;2022-11-28T05:20:59;8.80;99.90
31133;DHT22;17779;50.942;4.026;2022-11-28T05:23:26;8.80;99.90
31133;DHT22;17779;50.942;4.026;2022-11-28T05:25:51;8.80;99.90
31133;DHT22;17779;50.942;4.026;2022-11-28T05:28:17;8.80;99.90
31133;DHT22;17779;50.942;4.026;2022-11-28T05:30:43;8.90;99.90
31133;DHT22;17779;50.942;4.026;2022-11-28T05:33:08;8.80;99.90
31133;DHT22;17779;50.942;4.026;2022-11-28T05:35:37;8.80;99.90
31133;DHT22;17779;50.942;4.026;2022-11-28T05:38:03;8.80;99.90
31133;DHT22;17779;50.942;4.026;2022-11-28T05:40:28;8.80;99.90
31133;DHT22;17779;50.942;4.026;2022-11-28T05:42:54;8.90;99.90
31133;DHT22;17779;50.942;4.026;2022-11-28T05:45:19;8.90;99.90
31133;DHT22;17779;50.942;4.026;2022-11-28T05:47:45;8.90;99.90
31133;DHT22;17779;50.942;4.026;2022-11-28T05:50:11;9.00;99.90
31133;DHT22;17779;50.942;4.026;2022-11-28T05:52:36;8.90;99.90
31133;DHT22;17779;50.942;4.026;2022-11-28T05:55:02;9.00;99.90
31133;DHT22;17779;50.942;4.026;2022-11-28T05:57:28;9.10;99.90
31133;DHT22;17779;50.942;4.026;2022-11-28T05:59:56;9.00;99.90
31133;DHT22;17779;50.942;4.026;2022-11-28T06:02:21;9.00;99.90
31133;DHT22;17779;50.942;4.026;2022-11-28T06:04:47;9.10;99.90
31133;DHT22;17779;50.942;4.026;2022-11-28T06:07:13;9.20;99.90
31133;DHT22;17779;50.942;4.026;2022-11-28T06:09:39;9.10;99.90
31133;DHT22;17779;50.942;4.026;2022-11-28T06:12:04;9.10;99.90
31133;DHT22;17779;50.942;4.026;2022-11-28T06:14:30;9.20;99.90
31133;DHT22;17779;50.942;4.026;2022-11-28T06:16:56;9.20;99.90
31133;DHT22;17779;50.942;4.026;2022-11-28T06:19:22;9.10;99.90
31133;DHT22;17779;50.942;4.026;2022-11-28T06:21:50;9.00;99.90
31133;DHT22;17779;50.942;4.026;2022-11-28T06:24:16;9.10;99.90
31133;DHT22;17779;50.942;4.026;2022-11-28T06:26:42;9.10;99.90
31133;DHT22;17779;50.942;4.026;2022-11-28T06:29:08;9.00;99.90
31133;DHT22;17779;50.942;4.026;2022-11-28T06:31:33;9.10;99.90
31133;DHT22;17779;50.942;4.026;2022-11-28T06:33:59;9.10;99.90
31133;DHT22;17779;50.942;4.026;2022-11-28T06:36:25;9.10;99.90
31133;DHT22;17779;50.942;4.026;2022-11-28T06:38:51;9.00;99.90
31133;DHT22;17779;50.942;4.026;2022-11-28T06:41:17;8.90;99.90
31133;DHT22;17779;50.942;4.026;2022-11-28T06:43:43;8.90;99.90
31133;DHT22;17779;50.942;4.026;2022-11-28T06:46:16;8.90;99.90
31133;DHT22;17779;50.942;4.026;2022-11-28T06:48:43;9.00;99.90
31133;DHT22;17779;50.942;4.026;2022-11-28T06:51:09;9.00;99.90
31133;DHT22;17779;50.942;4.026;2022-11-28T06:53:34;9.00;99.90
31133;DHT22;17779;50.942;4.026;2022-11-28T06:56:04;9.00;99.90
31133;DHT22;17779;50.942;4.026;2022-11-28T06:58:30;9.00;99.90
31133;DHT22;17779;50.942;4.026;2022-11-28T07:00:56;9.00;99.90
31133;DHT22;17779;50.942;4.026;2022-11-28T07:03:21;9.00;99.90
31133;DHT22;17779;50.942;4.026;2022-11-28T07:05:47;9.10;99.90
31133;DHT22;17779;50.942;4.026;2022-11-28T07:08:13;9.10;99.90
31133;DHT22;17779;50.942;4.026;2022-11-28T07:10:38;9.20;99.90
31133;DHT22;17779;50.942;4.026;2022-11-28T07:13:04;9.20;99.90
31133;DHT22;17779;50.942;4.026;2022-11-28T07:15:29;9.30;99.90
31133;DHT22;17779;50.942;4.026;2022-11-28T07:17:56;9.30;99.90
31133;DHT22;17779;50.942;4.026;2022-11-28T07:20:21;9.30;99.90
31133;DHT22;17779;50.942;4.026;2022-11-28T07:22:47;9.30;99.90
31133;DHT22;17779;50.942;4.026;2022-11-28T07:25:13;9.40;99.90
31133;DHT22;17779;50.942;4.026;2022-11-28T07:27:39;9.40;99.90
31133;DHT22;17779;50.942;4.026;2022-11-28T07:30:06;9.40;99.90
31133;DHT22;17779;50.942;4.026;2022-11-28T07:32:31;9.40;99.90
31133;DHT22;17779;50.942;4.026;2022-11-28T07:34:57;9.40;99.90
31133;DHT22;17779;50.942;4.026;2022-11-28T07:37:23;9.40;99.90
31133;DHT22;17779;50.942;4.026;2022-11-28T07:39:49;9.40;99.90
31133;DHT22;17779;50.942;4.026;2022-11-28T07:42:15;9.30;99.90
31133;DHT22;17779;50.942;4.026;2022-11-28T07:44:40;9.20;99.90
31133;DHT22;17779;50.942;4.026;2022-11-28T07:47:06;9.20;99.90
31133;DHT22;17779;50.942;4.026;2022-11-28T07:49:33;9.20;99.90
31133;DHT22;17779;50.942;4.026;2022-11-28T07:51:59;9.20;99.90
31133;DHT22;17779;50.942;4.026;2022-11-28T07:54:25;9.30;99.90
31133;DHT22;17779;50.942;4.026;2022-11-28T07:56:50;9.40;99.90
31133;DHT22;17779;50.942;4.026;2022-11-28T07:59:16;9.40;99.90
31133;DHT22;17779;50.942;4.026;2022-11-28T08:01:44;9.40;99.90
31133;DHT22;17779;50.942;4.026;2022-11-28T08:04:10;9.40;99.90
31133;DHT22;17779;50.942;4.026;2022-11-28T08:06:41;9.40;99.90
31133;DHT22;17779;50.942;4.026;2022-11-28T08:09:08;9.50;99.90
31133;DHT22;17779;50.942;4.026;2022-11-28T08:11:36;9.40;99.90
31133;DHT22;17779;50.942;4.026;2022-11-28T08:14:03;9.30;99.90
31133;DHT22;17779;50.942;4.026;2022-11-28T08:19:01;9.40;99.90
31133;DHT22;17779;50.942;4.026;2022-11-28T08:21:28;9.40;99.90
31133;DHT22;17779;50.942;4.026;2022-11-28T08:23:55;9.40;99.90
31133;DHT22;17779;50.942;4.026;2022-11-28T08:26:23;9.40;99.90
31133;DHT22;17779;50.942;4.026;2022-11-28T08:28:49;9.40;99.90
31133;DHT22;17779;50.942;4.026;2022-11-28T08:31:16;9.40;99.90
31133;DHT22;17779;50.942;4.026;2022-11-28T08:33:42;9.50;99.90
31133;DHT22;17779;50.942;4.026;2022-11-28T08:36:09;9.50;99.90
31133;DHT22;17779;50.942;4.026;2022-11-28T08:38:35;9.60;99.90
31133;DHT22;17779;50.942;4.026;2022-11-28T08:41:05;9.50;99.90
31133;DHT22;17779;50.942;4.026;2022-11-28T08:43:34;9.60;99.90
31133;DHT22;17779;50.942;4.026;2022-11-28T08:46:05;9.60;99.90
31133;DHT22;17779;50.942;4.026;2022-11-28T08:48:30;9.70;99.90
31133;DHT22;17779;50.942;4.026;2022-11-28T08:50:57;9.60;99.90
31133;DHT22;17779;50.942;4.026;2022-11-28T08:53:24;9.60;99.90
31133;DHT22;17779;50.942;4.026;2022-11-28T08:55:50;9.60;99.90
31133;DHT22;17779;50.942;4.026;2022-11-28T08:58:19;9.50;99.90
31133;DHT22;17779;50.942;4.026;2022-11-28T09:00:44;9.60;99.90
31133;DHT22;17779;50.942;4.026;2022-11-28T09:03:12;9.60;99.90
31133;DHT22;17779;50.942;4.026;2022-11-28T09:05:38;9.70;99.90
31133;DHT22;17779;50.942;4.026;2022-11-28T09:08:04;9.70;99.90
31133;DHT22;17779;50.942;4.026;2022-11-28T09:10:29;9.70;99.90
31133;DHT22;17779;50.942;4.026;2022-11-28T09:12:55;9.60;99.90
31133;DHT22;17779;50.942;4.026;2022-11-28T09:15:20;9.50;99.90
31133;DHT22;17779;50.942;4.026;2022-11-28T09:17:46;9.50;99.90
31133;DHT22;17779;50.942;4.026;2022-11-28T09:20:13;9.60;99.90
31133;DHT22;17779;50.942;4.026;2022-11-28T09:22:40;9.60;99.90
31133;DHT22;17779;50.942;4.026;2022-11-28T09:25:09;9.70;99.90
31133;DHT22;17779;50.942;4.026;2022-11-28T09:27:34;9.80;99.90
31133;DHT22;17779;50.942;4.026;2022-11-28T09:30:04;9.70;99.90
31133;DHT22;17779;50.942;4.026;2022-11-28T09:32:30;9.80;99.90
31133;DHT22;17779;50.942;4.026;2022-11-28T09:34:57;9.90;99.90
31133;DHT22;17779;50.942;4.026;2022-11-28T09:37:22;9.90;99.90
31133;DHT22;17779;50.942;4.026;2022-11-28T09:39:49;9.90;99.90
31133;DHT22;17779;50.942;4.026;2022-11-28T09:44:51;10.00;99.90
31133;DHT22;17779;50.942;4.026;2022-11-28T09:47:19;10.20;99.90
31133;DHT22;17779;50.942;4.026;2022-11-28T09:50:21;10.20;99.90
31133;DHT22;17779;50.942;4.026;2022-11-28T09:55:33;10.30;99.90
31133;DHT22;17779;50.942;4.026;2022-11-28T09:58:00;10.30;99.90
31133;DHT22;17779;50.942;4.026;2022-11-28T10:00:36;10.30;99.90
31133;DHT22;17779;50.942;4.026;2022-11-28T10:03:12;10.20;99.90
31133;DHT22;17779;50.942;4.026;2022-11-28T10:08:24;10.40;99.90
31133;DHT22;17779;50.942;4.026;2022-11-28T10:13:58;10.20;99.90
31133;DHT22;17779;50.942;4.026;2022-11-28T10:18:58;10.50;99.90
31133;DHT22;17779;50.942;4.026;2022-11-28T10:21:35;10.50;99.90
31133;DHT22;17779;50.942;4.026;2022-11-28T10:24:04;10.60;99.90
31133;DHT22;17779;50.942;4.026;2022-11-28T10:28:58;10.50;99.90
31133;DHT22;17779;50.942;4.026;2022-11-28T10:31:34;10.40;99.90
31133;DHT22;17779;50.942;4.026;2022-11-28T10:34:03;10.40;99.90
31133;DHT22;17779;50.942;4.026;2022-11-28T10:36:46;10.60;99.90
31133;DHT22;17779;50.942;4.026;2022-11-28T10:39:13;10.60;99.90
31133;DHT22;17779;50.942;4.026;2022-11-28T10:41:41;10.60;99.90
31133;DHT22;17779;50.942;4.026;2022-11-28T10:44:11;10.50;99.90
31133;DHT22;17779;50.942;4.026;2022-11-28T10:51:43;10.70;99.90
31133;DHT22;17779;50.942;4.026;2022-11-28T10:54:16;10.70;99.90
31133;DHT22;17779;50.942;4.026;2022-11-28T11:01:55;10.70;99.90
31133;DHT22;17779;50.942;4.026;2022-11-28T11:04:23;10.60;99.90
31133;DHT22;17779;50.942;4.026;2022-11-28T11:09:26;10.60;99.90
31133;DHT22;17779;50.942;4.026;2022-11-28T11:11:55;10.50;99.90
31133;DHT22;17779;50.942;4.026;2022-11-28T11:14:32;10.50;99.90
31133;DHT22;17779;50.942;4.026;2022-11-28T11:16:58;10.40;99.90
31133;DHT22;17779;50.942;4.026;2022-11-28T11:19:25;10.60;99.90
31133;DHT22;17779;50.942;4.026;2022-11-28T11:24:38;10.50;99.90
31133;DHT22;17779;50.942;4.026;2022-11-28T11:27:15;10.40;99.90
31133;DHT22;17779;50.942;4.026;2022-11-28T11:29:42;10.30;99.90
31133;DHT22;17779;50.942;4.026;2022-11-28T11:32:22;10.30;99.90
31133;DHT22;17779;50.942;4.026;2022-11-28T11:34:49;10.30;99.90
31133;DHT22;17779;50.942;4.026;2022-11-28T11:37:19;10.30;99.90
31133;DHT22;17779;50.942;4.026;2022-11-28T11:39:47;10.50;99.90
31133;DHT22;17779;50.942;4.026;2022-11-28T11:42:18;10.60;99.90
31133;DHT22;17779;50.942;4.026;2022-11-28T11:44:44;10.70;99.90
31133;DHT22;17779;50.942;4.026;2022-11-28T11:47:10;10.60;99.90
31133;DHT22;17779;50.942;4.026;2022-11-28T11:52:04;10.50;99.90
31133;DHT22;17779;50.942;4.026;2022-11-28T11:54:30;10.50;99.90
31133;DHT22;17779;50.942;4.026;2022-11-28T11:56:56;10.50;99.90
31133;DHT22;17779;50.942;4.026;2022-11-28T11:59:28;10.50;99.90
31133;DHT22;17779;50.942;4.026;2022-11-28T12:01:57;10.60;99.90
31133;DHT22;17779;50.942;4.026;2022-11-28T12:04:36;10.60;99.90
31133;DHT22;17779;50.942;4.026;2022-11-28T12:07:04;10.90;99.90
31133;DHT22;17779;50.942;4.026;2022-11-28T12:09:33;10.90;99.90
31133;DHT22;17779;50.942;4.026;2022-11-28T12:12:04;11.20;99.90
31133;DHT22;17779;50.942;4.026;2022-11-28T12:14:34;11.20;99.90
31133;DHT22;17779;50.942;4.026;2022-11-28T12:22:28;11.00;99.90
31133;DHT22;17779;50.942;4.026;2022-11-28T12:30:15;11.10;99.90
31133;DHT22;17779;50.942;4.026;2022-11-28T12:32:47;11.10;99.90
31133;DHT22;17779;50.942;4.026;2022-11-28T12:40:31;11.20;99.90
31133;DHT22;17779;50.942;4.026;2022-11-28T12:45:36;11.00;99.90
31133;DHT22;17779;50.942;4.026;2022-11-28T12:48:25;11.00;99.90
31133;DHT22;17779;50.942;4.026;2022-11-28T12:50:58;11.10;99.90
31133;DHT22;17779;50.942;4.026;2022-11-28T12:56:06;11.20;99.90
31133;DHT22;17779;50.942;4.026;2022-11-28T12:58:42;11.30;99.90
31133;DHT22;17779;50.942;4.026;2022-11-28T13:09:16;11.40;99.90
31133;DHT22;17779;50.942;4.026;2022-11-28T13:22:21;11.40;99.90
31133;DHT22;17779;50.942;4.026;2022-11-28T13:25:07;11.50;99.90
31133;DHT22;17779;50.942;4.026;2022-11-28T13:28:12;11.40;99.90
31133;DHT22;17779;50.942;4.026;2022-11-28T13:30:29;11.30;99.90
31133;DHT22;17779;50.942;4.026;2022-11-28T13:35:21;11.30;99.90
31133;DHT22;17779;50.942;4.026;2022-11-28T13:38:08;11.40;99.90
31133;DHT22;17779;50.942;4.026;2022-11-28T13:40:37;11.40;99.90
31133;DHT22;17779;50.942;4.026;2022-11-28T13:45:30;11.50;99.90
31133;DHT22;17779;50.942;4.026;2022-11-28T13:47:56;11.60;99.90
31133;DHT22;17779;50.942;4.026;2022-11-28T13:50:33;11.50;99.90
31133;DHT22;17779;50.942;4.026;2022-11-28T13:53:00;11.40;99.90
31133;DHT22;17779;50.942;4.026;2022-11-28T13:55:36;11.40;99.90
31133;DHT22;17779;50.942;4.026;2022-11-28T13:58:18;11.50;99.90
31133;DHT22;17779;50.942;4.026;2022-11-28T14:03:29;11.20;99.90
31133;DHT22;17779;50.942;4.026;2022-11-28T14:05:56;11.30;99.90
31133;DHT22;17779;50.942;4.026;2022-11-28T14:08:26;11.20;99.90
31133;DHT22;17779;50.942;4.026;2022-11-28T14:16:04;11.70;99.90
31133;DHT22;17779;50.942;4.026;2022-11-28T14:26:32;11.70;99.90
31133;DHT22;17779;50.942;4.026;2022-11-28T14:28:58;11.50;99.90
31133;DHT22;17779;50.942;4.026;2022-11-28T14:34:00;11.70;99.90
31133;DHT22;17779;50.942;4.026;2022-11-28T14:36:27;11.60;99.90
31133;DHT22;17779;50.942;4.026;2022-11-28T14:41:26;11.40;99.90
31133;DHT22;17779;50.942;4.026;2022-11-28T14:43:52;11.60;99.90
31133;DHT22;17779;50.942;4.026;2022-11-28T14:46:22;11.60;99.90
31133;DHT22;17779;50.942;4.026;2022-11-28T14:54:27;11.20;99.90
31133;DHT22;17779;50.942;4.026;2022-11-28T14:56:53;11.30;99.90
31133;DHT22;17779;50.942;4.026;2022-11-28T14:59:21;11.20;99.90
31133;DHT22;17779;50.942;4.026;2022-11-28T15:01:53;11.20;99.90
31133;DHT22;17779;50.942;4.026;2022-11-28T15:06:55;11.20;99.90
31133;DHT22;17779;50.942;4.026;2022-11-28T15:09:40;11.30;99.90
31133;DHT22;17779;50.942;4.026;2022-11-28T15:15:12;11.40;99.90
31133;DHT22;17779;50.942;4.026;2022-11-28T15:17:38;11.50;99.90
31133;DHT22;17779;50.942;4.026;2022-11-28T15:20:12;11.60;99.90
31133;DHT22;17779;50.942;4.026;2022-11-28T15:22:41;11.50;99.90
31133;DHT22;17779;50.942;4.026;2022-11-28T15:25:20;11.40;99.90
31133;DHT22;17779;50.942;4.026;2022-11-28T15:27:47;11.40;99.90
31133;DHT22;17779;50.942;4.026;2022-11-28T15:30:13;11.60;99.90
31133;DHT22;17779;50.942;4.026;2022-11-28T15:32:39;11.50;99.90
31133;DHT22;17779;50.942;4.026;2022-11-28T15:35:11;11.40;99.90
31133;DHT22;17779;50.942;4.026;2022-11-28T15:37:44;11.40;99.90
31133;DHT22;17779;50.942;4.026;2022-11-28T15:40:16;11.20;99.90
31133;DHT22;17779;50.942;4.026;2022-11-28T15:42:42;11.20;99.90
31133;DHT22;17779;50.942;4.026;2022-11-28T15:45:28;11.20;99.90
31133;DHT22;17779;50.942;4.026;2022-11-28T15:47:55;11.00;99.90
31133;DHT22;17779;50.942;4.026;2022-11-28T15:50:22;10.90;99.90
31133;DHT22;17779;50.942;4.026;2022-11-28T15:52:53;10.90;99.90
31133;DHT22;17779;50.942;4.026;2022-11-28T15:55:19;10.70;99.90
31133;DHT22;17779;50.942;4.026;2022-11-28T15:57:45;10.70;99.90
31133;DHT22;17779;50.942;4.026;2022-11-28T16:00:14;10.70;99.90
31133;DHT22;17779;50.942;4.026;2022-11-28T16:02:40;10.60;99.90
31133;DHT22;17779;50.942;4.026;2022-11-28T16:05:07;10.70;99.90
31133;DHT22;17779;50.942;4.026;2022-11-28T16:07:33;10.60;99.90
31133;DHT22;17779;50.942;4.026;2022-11-28T16:10:04;10.60;99.90
31133;DHT22;17779;50.942;4.026;2022-11-28T16:12:30;10.70;99.90
31133;DHT22;17779;50.942;4.026;2022-11-28T16:14:56;10.90;99.90
31133;DHT22;17779;50.942;4.026;2022-11-28T16:17:32;10.90;99.90
31133;DHT22;17779;50.942;4.026;2022-11-28T16:19:58;11.00;99.90
31133;DHT22;17779;50.942;4.026;2022-11-28T16:22:32;11.00;99.90
31133;DHT22;17779;50.942;4.026;2022-11-28T16:25:09;11.10;99.90
31133;DHT22;17779;50.942;4.026;2022-11-28T16:27:37;11.00;99.90
31133;DHT22;17779;50.942;4.026;2022-11-28T16:32:51;11.10;99.90
31133;DHT22;17779;50.942;4.026;2022-11-28T16:35:24;11.10;99.90
31133;DHT22;17779;50.942;4.026;2022-11-28T16:37:50;11.20;99.90
31133;DHT22;17779;50.942;4.026;2022-11-28T16:40:21;11.20;99.90
31133;DHT22;17779;50.942;4.026;2022-11-28T16:42:53;11.10;99.90
31133;DHT22;17779;50.942;4.026;2022-11-28T16:45:20;11.00;99.90
31133;DHT22;17779;50.942;4.026;2022-11-28T16:47:53;11.00;99.90
31133;DHT22;17779;50.942;4.026;2022-11-28T16:50:21;11.00;99.90
31133;DHT22;17779;50.942;4.026;2022-11-28T16:52:51;10.90;99.90
31133;DHT22;17779;50.942;4.026;2022-11-28T16:58:06;11.10;99.90
31133;DHT22;17779;50.942;4.026;2022-11-28T17:00:33;11.40;99.90
31133;DHT22;17779;50.942;4.026;2022-11-28T17:02:59;11.60;99.90
31133;DHT22;17779;50.942;4.026;2022-11-28T17:05:24;11.50;99.90
31133;DHT22;17779;50.942;4.026;2022-11-28T17:07:51;11.70;99.90
31133;DHT22;17779;50.942;4.026;2022-11-28T17:10:17;11.70;99.90
31133;DHT22;17779;50.942;4.026;2022-11-28T17:12:43;11.30;99.90
31133;DHT22;17779;50.942;4.026;2022-11-28T17:15:13;11.20;99.90
31133;DHT22;17779;50.942;4.026;2022-11-28T17:17:39;11.30;99.90
31133;DHT22;17779;50.942;4.026;2022-11-28T17:20:05;11.10;99.90
31133;DHT22;17779;50.942;4.026;2022-11-28T17:22:33;11.10;99.90
31133;DHT22;17779;50.942;4.026;2022-11-28T17:24:59;11.10;99.90
31133;DHT22;17779;50.942;4.026;2022-11-28T17:27:25;11.20;99.90
31133;DHT22;17779;50.942;4.026;2022-11-28T17:29:51;10.90;99.90
31133;DHT22;17779;50.942;4.026;2022-11-28T17:32:17;10.70;99.90
31133;DHT22;17779;50.942;4.026;2022-11-28T17:34:42;10.70;99.90
31133;DHT22;17779;50.942;4.026;2022-11-28T17:37:10;10.50;99.90
31133;DHT22;17779;50.942;4.026;2022-11-28T17:39:36;10.60;99.90
31133;DHT22;17779;50.942;4.026;2022-11-28T17:42:01;10.70;99.90
31133;DHT22;17779;50.942;4.026;2022-11-28T17:44:30;10.80;99.90
31133;DHT22;17779;50.942;4.026;2022-11-28T17:46:56;10.60;99.90
31133;DHT22;17779;50.942;4.026;2022-11-28T17:49:22;10.60;99.90
31133;DHT22;17779;50.942;4.026;2022-11-28T17:51:48;10.50;99.90
31133;DHT22;17779;50.942;4.026;2022-11-28T17:54:15;10.60;99.90
31133;DHT22;17779;50.942;4.026;2022-11-28T17:56:42;10.60;99.90
31133;DHT22;17779;50.942;4.026;2022-11-28T17:59:11;10.70;99.90
31133;DHT22;17779;50.942;4.026;2022-11-28T18:01:36;10.60;99.90
31133;DHT22;17779;50.942;4.026;2022-11-28T18:04:02;10.50;99.90
31133;DHT22;17779;50.942;4.026;2022-11-28T18:06:29;10.50;99.90
31133;DHT22;17779;50.942;4.026;2022-11-28T18:08:56;10.60;99.90
31133;DHT22;17779;50.942;4.026;2022-11-28T18:11:22;10.70;99.90
31133;DHT22;17779;50.942;4.026;2022-11-28T18:13:47;10.70;99.90
31133;DHT22;17779;50.942;4.026;2022-11-28T18:16:14;10.70;99.90
31133;DHT22;17779;50.942;4.026;2022-11-28T18:18:40;10.50;99.90
31133;DHT22;17779;50.942;4.026;2022-11-28T18:21:05;10.60;99.90
31133;DHT22;17779;50.942;4.026;2022-11-28T18:23:36;10.40;99.90
31133;DHT22;17779;50.942;4.026;2022-11-28T18:26:07;10.30;99.90